createdAt,value
2024-05-09T00:01:14.654Z,103009.53
2024-05-09T00:03:44.597Z,103001.88
2024-05-09T00:06:19.081Z,103002.94
2024-05-09T00:08:46.380Z,102995.28
2024-05-09T00:11:25.406Z,102999.97
2024-05-09T00:13:51.999Z,103001.75
2024-05-09T00:16:18.839Z,102990.56
2024-05-09T00:18:45.576Z,102993.47
2024-05-09T00:21:13.825Z,102994.59
2024-05-09T00:23:40.542Z,102995.94
2024-05-09T00:26:07.496Z,102994.25
2024-05-09T00:28:37.059Z,102988.66
2024-05-09T00:31:03.693Z,102989.25
2024-05-09T00:33:33.411Z,102984.56
2024-05-09T00:36:00.018Z,102991.66
2024-05-09T00:38:26.619Z,102979.81
2024-05-09T00:41:02.183Z,102983.84
2024-05-09T00:43:28.732Z,102975.63
2024-05-09T00:45:59.356Z,102970.50
2024-05-09T00:48:27.082Z,102971.44
2024-05-09T00:50:56.348Z,102972.50
2024-05-09T00:53:29.675Z,102966.69
2024-05-09T00:55:57.853Z,102980.13
2024-05-09T00:58:32.473Z,102965.38
2024-05-09T01:01:08.259Z,102971.53
2024-05-09T01:03:35.092Z,102974.91
2024-05-09T01:06:09.087Z,102972.47
2024-05-09T01:08:39.109Z,102972.88
2024-05-09T01:11:07.787Z,102973.69
2024-05-09T01:13:34.355Z,102972.31
2024-05-09T01:16:01.127Z,102975.13
2024-05-09T01:18:27.825Z,102974.44
2024-05-09T01:23:39.269Z,102973.22
2024-05-09T01:26:08.965Z,102973.22
2024-05-09T01:31:18.736Z,102968.00
2024-05-09T01:33:51.508Z,102973.31
2024-05-09T01:36:18.454Z,102964.28
2024-05-09T01:38:48.971Z,102963.59
2024-05-09T01:41:15.577Z,102962.66
2024-05-09T01:43:42.553Z,102968.47
2024-05-09T01:46:19.480Z,102964.00
2024-05-09T01:48:49.664Z,102968.56
2024-05-09T01:51:19.350Z,102965.47
2024-05-09T01:53:46.017Z,102954.63
2024-05-09T01:56:26.059Z,102962.47
2024-05-09T01:58:57.051Z,102960.88
2024-05-09T02:01:26.689Z,102965.34
2024-05-09T02:03:53.415Z,102963.19
2024-05-09T02:06:20.298Z,102963.47
2024-05-09T02:08:52.656Z,102968.16
2024-05-09T02:11:19.596Z,102959.00
2024-05-09T02:13:47.103Z,102962.88
2024-05-09T02:16:14.596Z,102954.31
2024-05-09T02:18:41.954Z,102959.88
2024-05-09T02:21:18.527Z,102973.13
2024-05-09T02:23:46.386Z,102964.28
2024-05-09T02:26:13.675Z,102961.66
2024-05-09T02:28:40.342Z,102965.63
2024-05-09T02:31:06.848Z,102970.28
2024-05-09T02:33:41.745Z,102965.50
2024-05-09T02:36:09.213Z,102962.81
2024-05-09T02:38:46.049Z,102964.78
2024-05-09T02:41:12.572Z,102963.84
2024-05-09T02:43:42.996Z,102963.75
2024-05-09T02:46:09.608Z,102964.81
2024-05-09T02:48:36.314Z,102957.53
2024-05-09T02:51:06.427Z,102952.47
2024-05-09T02:53:36.046Z,102951.56
2024-05-09T02:56:08.013Z,102949.78
2024-05-09T02:58:37.690Z,102948.19
2024-05-09T03:01:04.437Z,102946.75
2024-05-09T03:03:34.272Z,102943.97
2024-05-09T03:06:02.050Z,102947.63
2024-05-09T03:08:28.981Z,102945.94
2024-05-09T03:10:58.900Z,102946.84
2024-05-09T03:13:29.082Z,102942.75
2024-05-09T03:15:59.777Z,102948.63
2024-05-09T03:18:29.592Z,102944.41
2024-05-09T03:20:58.766Z,102944.59
2024-05-09T03:23:25.366Z,102936.00
2024-05-09T03:25:54.226Z,102937.88
2024-05-09T03:31:08.654Z,102938.53
2024-05-09T03:33:35.992Z,102937.03
2024-05-09T03:36:05.581Z,102932.84
2024-05-09T03:38:42.602Z,102939.72
2024-05-09T03:41:14.975Z,102936.09
2024-05-09T03:43:43.765Z,102940.75
2024-05-09T03:46:10.307Z,102939.13
2024-05-09T03:48:42.055Z,102943.75
2024-05-09T03:51:08.776Z,102933.41
2024-05-09T03:53:39.054Z,102930.72
2024-05-09T03:56:09.076Z,102934.25
2024-05-09T03:58:35.892Z,102932.69
2024-05-09T04:01:05.620Z,102932.59
2024-05-09T04:03:34.083Z,102932.34
2024-05-09T04:06:03.877Z,102945.47
2024-05-09T04:08:33.507Z,102930.88
2024-05-09T04:11:00.077Z,102934.09
2024-05-09T04:13:26.926Z,102942.44
2024-05-09T04:15:53.439Z,102940.31
2024-05-09T04:18:20.077Z,102941.81
2024-05-09T04:20:46.703Z,102946.78
2024-05-09T04:23:14.682Z,102935.34
2024-05-09T04:25:45.678Z,102947.13
2024-05-09T04:28:12.985Z,102937.09
2024-05-09T04:30:45.791Z,102943.47
2024-05-09T04:33:15.081Z,102943.88
2024-05-09T04:35:48.275Z,102944.84
2024-05-09T04:38:15.781Z,102942.03
2024-05-09T04:40:43.275Z,102938.97
2024-05-09T04:43:18.593Z,102941.81
2024-05-09T04:45:55.826Z,102934.72
2024-05-09T04:48:22.867Z,102940.72
2024-05-09T04:50:50.016Z,102934.28
2024-05-09T04:53:19.746Z,102938.72
2024-05-09T04:55:46.394Z,102944.53
2024-05-09T04:58:15.959Z,102937.53
2024-05-09T05:00:45.660Z,102937.38
2024-05-09T05:03:19.063Z,102934.81
2024-05-09T05:05:46.366Z,102939.09
2024-05-09T05:08:19.871Z,102939.97
2024-05-09T05:10:50.500Z,102940.81
2024-05-09T05:13:22.835Z,102941.22
2024-05-09T05:15:58.360Z,102948.66
2024-05-09T05:18:28.611Z,102942.78
2024-05-09T05:20:58.390Z,102950.84
2024-05-09T05:23:26.118Z,102951.78
2024-05-09T05:25:56.836Z,102950.53
2024-05-09T05:28:23.673Z,102952.72
2024-05-09T05:30:59.783Z,102948.25
2024-05-09T05:33:26.510Z,102954.97
2024-05-09T05:36:02.590Z,102951.47
2024-05-09T05:38:32.614Z,102951.41
2024-05-09T05:40:59.538Z,102953.69
2024-05-09T05:43:26.468Z,102950.75
2024-05-09T05:45:53.010Z,102946.19
2024-05-09T05:48:23.109Z,102956.25
2024-05-09T05:50:49.883Z,102947.13
2024-05-09T05:53:16.609Z,102953.13
2024-05-09T05:55:47.103Z,102949.13
2024-05-09T05:58:14.775Z,102950.94
2024-05-09T06:00:42.396Z,102950.91
2024-05-09T06:03:11.550Z,102953.63
2024-05-09T06:05:43.679Z,102953.34
2024-05-09T06:08:14.257Z,102951.38
2024-05-09T06:10:41.842Z,102946.81
2024-05-09T06:13:12.792Z,102944.59
2024-05-09T06:15:44.062Z,102940.41
2024-05-09T06:18:12.218Z,102938.56
2024-05-09T06:20:41.863Z,102934.72
2024-05-09T06:23:11.801Z,102941.19
2024-05-09T06:25:39.183Z,102936.75
2024-05-09T06:28:08.973Z,102935.00
2024-05-09T06:30:42.654Z,102934.44
2024-05-09T06:33:15.834Z,102935.19
2024-05-09T06:35:44.929Z,102941.91
2024-05-09T06:38:14.801Z,102922.84
2024-05-09T06:40:43.685Z,102930.88
2024-05-09T06:43:19.482Z,102929.06
2024-05-09T06:45:52.856Z,102926.75
2024-05-09T06:48:22.078Z,102929.53
2024-05-09T06:50:50.855Z,102930.72
2024-05-09T06:53:24.551Z,102928.56
2024-05-09T06:55:51.703Z,102935.19
2024-05-09T06:58:18.287Z,102925.28
2024-05-09T07:00:50.980Z,102936.47
2024-05-09T07:06:04.217Z,102929.03
2024-05-09T07:08:33.824Z,102938.63
2024-05-09T07:11:01.488Z,102935.94
2024-05-09T07:13:34.478Z,102945.94
2024-05-09T07:16:00.984Z,102939.84
2024-05-09T07:18:28.060Z,102944.19
2024-05-09T07:20:58.195Z,102941.34
2024-05-09T07:23:24.918Z,102940.66
2024-05-09T07:25:55.318Z,102935.19
2024-05-09T07:28:21.900Z,102937.69
2024-05-09T07:30:48.638Z,102945.47
2024-05-09T07:33:20.897Z,102936.00
2024-05-09T07:35:49.634Z,102935.13
2024-05-09T07:38:16.557Z,102935.81
2024-05-09T07:40:43.288Z,102929.53
2024-05-09T07:43:13.896Z,102925.38
2024-05-09T07:45:52.395Z,102930.06
2024-05-09T07:50:00.307Z,102924.41
2024-05-09T07:53:49.913Z,102920.28
2024-05-09T07:56:23.043Z,102922.16
2024-05-09T07:58:52.991Z,102917.69
2024-05-09T08:01:20.057Z,102917.72
2024-05-09T08:03:49.789Z,102915.19
2024-05-09T08:06:16.635Z,102918.38
2024-05-09T08:08:46.855Z,102916.06
2024-05-09T08:11:25.586Z,102914.06
2024-05-09T08:13:52.271Z,102913.44
2024-05-09T08:16:22.084Z,102914.09
2024-05-09T08:18:48.828Z,102911.59
2024-05-09T08:21:15.423Z,102901.13
2024-05-09T08:23:41.976Z,102912.25
2024-05-09T08:26:08.465Z,102911.56
2024-05-09T08:28:38.585Z,102914.25
2024-05-09T08:31:07.969Z,102917.91
2024-05-09T08:33:44.136Z,102917.25
2024-05-09T08:36:13.840Z,102905.63
2024-05-09T08:38:44.082Z,102914.59
2024-05-09T08:41:15.419Z,102901.63
2024-05-09T08:43:44.342Z,102902.47
2024-05-09T08:46:16.592Z,102907.75
2024-05-09T08:48:48.057Z,102904.25
2024-05-09T08:54:00.429Z,102905.56
2024-05-09T08:56:34.424Z,102905.94
2024-05-09T08:59:02.097Z,102907.06
2024-05-09T09:01:33.757Z,102907.69
2024-05-09T09:04:07.163Z,102903.13
2024-05-09T09:06:37.276Z,102902.53
2024-05-09T09:12:10.173Z,102899.16
2024-05-09T09:14:40.325Z,102893.69
2024-05-09T09:17:19.383Z,102894.16
2024-05-09T09:19:45.987Z,102888.53
2024-05-09T09:22:21.786Z,102889.25
2024-05-09T09:24:48.776Z,102888.09
2024-05-09T09:27:24.430Z,102884.78
2024-05-09T09:29:50.991Z,102879.16
2024-05-09T09:32:28.644Z,102889.63
2024-05-09T09:34:56.589Z,102884.81
2024-05-09T09:37:32.266Z,102886.66
2024-05-09T09:39:59.335Z,102881.19
2024-05-09T09:42:35.368Z,102884.72
2024-05-09T09:45:10.476Z,102878.94
2024-05-09T09:47:39.956Z,102880.66
2024-05-09T09:50:14.558Z,102877.91
2024-05-09T09:52:44.577Z,102875.25
2024-05-09T09:55:19.851Z,102872.75
2024-05-09T09:57:49.069Z,102868.78
2024-05-09T10:00:24.076Z,102868.25
2024-05-09T10:02:54.509Z,102870.56
2024-05-09T10:05:27.053Z,102876.47
2024-05-09T10:07:55.467Z,102877.13
2024-05-09T10:10:33.266Z,102876.19
2024-05-09T10:13:11.054Z,102861.13
2024-05-09T10:15:56.806Z,102860.03
2024-05-09T10:18:30.174Z,102857.41
2024-05-09T10:20:59.440Z,102850.13
2024-05-09T10:23:31.022Z,102851.97
2024-05-09T10:26:08.531Z,102843.72
2024-05-09T10:28:43.404Z,102844.91
2024-05-09T10:31:11.937Z,102841.94
2024-05-09T10:33:55.114Z,102839.53
2024-05-09T10:36:22.596Z,102849.06
2024-05-09T10:38:50.835Z,102835.97
2024-05-09T10:41:25.920Z,102831.88
2024-05-09T10:43:52.477Z,102837.19
2024-05-09T10:46:22.226Z,102831.94
2024-05-09T10:48:49.239Z,102827.59
2024-05-09T10:51:24.508Z,102820.84
2024-05-09T10:53:52.489Z,102816.34
2024-05-09T10:56:19.288Z,102816.47
2024-05-09T10:58:57.409Z,102816.97
2024-05-09T11:04:12.243Z,102816.28
2024-05-09T11:06:39.666Z,102819.03
2024-05-09T11:09:06.854Z,102808.59
2024-05-09T11:11:33.982Z,102812.72
2024-05-09T11:14:14.293Z,102811.50
2024-05-09T11:16:43.601Z,102812.34
2024-05-09T11:19:17.747Z,102803.69
2024-05-09T11:21:51.729Z,102805.78
2024-05-09T11:24:21.749Z,102794.19
2024-05-09T11:26:49.368Z,102788.25
2024-05-09T11:29:19.256Z,102791.75
2024-05-09T11:31:49.685Z,102789.13
2024-05-09T11:34:16.410Z,102786.78
2024-05-09T11:36:44.403Z,102789.59
2024-05-09T11:39:14.006Z,102789.25
2024-05-09T11:41:40.537Z,102796.59
2024-05-09T11:44:13.081Z,102784.81
2024-05-09T11:46:39.958Z,102787.00
2024-05-09T11:49:14.139Z,102785.97
2024-05-09T11:51:43.907Z,102776.94
2024-05-09T11:54:18.293Z,102779.47
2024-05-09T11:56:44.912Z,102774.75
2024-05-09T11:59:11.592Z,102771.28
2024-05-09T12:01:47.409Z,102776.19
2024-05-09T12:04:14.237Z,102772.69
2024-05-09T12:06:49.965Z,102774.13
2024-05-09T12:09:16.755Z,102769.63
2024-05-09T12:11:44.440Z,102772.44
2024-05-09T12:14:14.027Z,102771.06
2024-05-09T12:16:41.244Z,102768.50
2024-05-09T12:19:10.894Z,102767.25
2024-05-09T12:21:37.546Z,102761.53
2024-05-09T12:24:04.179Z,102761.09
2024-05-09T12:26:33.902Z,102763.16
2024-05-09T12:29:02.416Z,102756.22
2024-05-09T12:31:29.253Z,102757.88
2024-05-09T12:34:02.547Z,102755.38
2024-05-09T12:36:30.669Z,102754.53
2024-05-09T12:39:11.122Z,102748.06
2024-05-09T12:42:02.380Z,102748.38
2024-05-09T12:44:28.880Z,102750.59
2024-05-09T12:46:55.484Z,102744.75
2024-05-09T12:49:30.428Z,102741.44
2024-05-09T12:51:57.120Z,102740.38
2024-05-09T12:54:23.662Z,102743.97
2024-05-09T12:56:54.282Z,102745.81
2024-05-09T12:59:20.805Z,102741.91
2024-05-09T13:01:53.355Z,102738.56
2024-05-09T13:04:20.071Z,102732.94
2024-05-09T13:06:49.481Z,102732.78
2024-05-09T13:09:22.652Z,102742.34
2024-05-09T13:11:49.297Z,102731.91
2024-05-09T13:14:25.444Z,102731.72
2024-05-09T13:16:51.964Z,102726.47
2024-05-09T13:19:19.196Z,102730.94
2024-05-09T13:21:49.330Z,102731.38
2024-05-09T13:24:16.167Z,102727.19
2024-05-09T13:26:51.982Z,102724.13
2024-05-09T13:29:26.717Z,102727.53
2024-05-09T13:31:56.505Z,102727.66
2024-05-09T13:34:26.348Z,102726.69
2024-05-09T13:36:57.009Z,102718.91
2024-05-09T13:39:23.658Z,102726.19
2024-05-09T13:41:50.213Z,102723.03
2024-05-09T13:44:19.814Z,102722.88
2024-05-09T13:46:46.648Z,102724.22
2024-05-09T13:49:17.442Z,102731.78
2024-05-09T13:51:44.209Z,102726.69
2024-05-09T13:54:10.775Z,102725.31
2024-05-09T13:56:37.750Z,102729.59
2024-05-09T13:59:07.216Z,102719.69
2024-05-09T14:01:33.807Z,102719.59
2024-05-09T14:04:05.160Z,102711.50
2024-05-09T14:06:31.987Z,102721.78
2024-05-09T14:08:58.651Z,102716.91
2024-05-09T14:11:28.283Z,102721.00
2024-05-09T14:13:57.674Z,102719.09
2024-05-09T14:16:27.462Z,102707.63
2024-05-09T14:18:54.347Z,102702.59
2024-05-09T14:21:24.669Z,102709.09
2024-05-09T14:24:00.000Z,102703.16
2024-05-09T14:26:26.986Z,102701.53
2024-05-09T14:28:57.114Z,102702.00
2024-05-09T14:31:26.991Z,102702.84
2024-05-09T14:34:15.000Z,102692.50
2024-05-09T14:36:42.118Z,102697.53
2024-05-09T14:39:11.795Z,102690.97
2024-05-09T14:41:41.385Z,102688.47
2024-05-09T14:44:10.198Z,102689.34
2024-05-09T14:46:36.727Z,102688.00
2024-05-09T14:49:04.503Z,102685.69
2024-05-09T14:51:31.716Z,102677.94
2024-05-09T14:54:01.911Z,102679.44
2024-05-09T14:56:41.725Z,102677.84
2024-05-09T14:59:13.960Z,102672.81
2024-05-09T15:01:43.615Z,102677.28
2024-05-09T15:04:15.252Z,102679.38
2024-05-09T15:06:45.209Z,102674.41
2024-05-09T15:09:14.181Z,102665.19
2024-05-09T15:11:47.507Z,102658.41
2024-05-09T15:14:14.347Z,102659.31
2024-05-09T15:16:42.724Z,102654.94
2024-05-09T15:19:12.523Z,102646.63
2024-05-09T15:21:46.742Z,102655.44
2024-05-09T15:24:13.250Z,102656.38
2024-05-09T15:26:39.773Z,102647.91
2024-05-09T15:29:09.844Z,102646.78
2024-05-09T15:31:36.381Z,102644.03
2024-05-09T15:34:03.011Z,102640.66
2024-05-09T15:36:33.161Z,102641.50
2024-05-09T15:39:02.934Z,102636.47
2024-05-09T15:41:32.728Z,102634.34
2024-05-09T15:44:01.471Z,102637.09
2024-05-09T15:46:28.141Z,102633.97
2024-05-09T15:49:04.399Z,102635.72
2024-05-09T15:51:31.075Z,102632.34
2024-05-09T15:53:57.938Z,102634.44
2024-05-09T15:56:24.526Z,102628.38
2024-05-09T15:58:51.085Z,102623.94
2024-05-09T16:01:17.715Z,102621.59
2024-05-09T16:03:47.294Z,102620.34
2024-05-09T16:06:17.260Z,102625.50
2024-05-09T16:08:49.630Z,102611.63
2024-05-09T16:11:20.771Z,102620.25
2024-05-09T16:13:50.029Z,102618.75
2024-05-09T16:16:26.026Z,102619.00
2024-05-09T16:19:02.041Z,102619.53
2024-05-09T16:21:31.575Z,102612.16
2024-05-09T16:23:59.139Z,102608.91
2024-05-09T16:26:26.574Z,102609.91
2024-05-09T16:28:53.171Z,102605.66
2024-05-09T16:31:22.570Z,102605.03
2024-05-09T16:33:49.227Z,102603.47
2024-05-09T16:36:16.258Z,102595.69
2024-05-09T16:38:45.692Z,102593.56
2024-05-09T16:41:15.502Z,102593.06
2024-05-09T16:43:44.874Z,102589.56
2024-05-09T16:46:13.876Z,102592.59
2024-05-09T16:48:45.125Z,102584.88
2024-05-09T16:51:18.072Z,102588.19
2024-05-09T16:53:45.833Z,102593.13
2024-05-09T16:56:15.544Z,102587.28
2024-05-09T16:58:42.458Z,102593.50
2024-05-09T17:01:12.602Z,102596.34
2024-05-09T17:03:43.341Z,102596.03
2024-05-09T17:06:10.612Z,102590.25
2024-05-09T17:08:47.224Z,102598.03
2024-05-09T17:11:18.680Z,102601.13
2024-05-09T17:13:50.422Z,102592.06
2024-05-09T17:16:20.999Z,102592.06
2024-05-09T17:18:51.004Z,102599.69
2024-05-09T17:21:17.806Z,102590.03
2024-05-09T17:23:49.265Z,102593.00
2024-05-09T17:26:15.802Z,102594.00
2024-05-09T17:28:42.491Z,102597.50
2024-05-09T17:31:12.359Z,102590.22
2024-05-09T17:33:42.869Z,102585.94
2024-05-09T17:36:12.231Z,102588.75
2024-05-09T17:38:40.986Z,102588.81
2024-05-09T17:41:07.607Z,102588.31
2024-05-09T17:43:34.583Z,102590.50
2024-05-09T17:46:01.376Z,102573.91
2024-05-09T17:48:28.089Z,102581.22
2024-05-09T17:50:54.684Z,102577.59
2024-05-09T17:53:30.333Z,102581.44
2024-05-09T17:55:56.929Z,102584.59
2024-05-09T17:58:32.157Z,102576.66
2024-05-09T18:00:58.878Z,102581.31
2024-05-09T18:03:27.266Z,102585.28
2024-05-09T18:05:58.648Z,102576.69
2024-05-09T18:08:27.217Z,102576.84
2024-05-09T18:10:58.909Z,102585.09
2024-05-09T18:13:27.246Z,102578.06
2024-05-09T18:15:57.024Z,102585.56
2024-05-09T18:18:23.717Z,102589.00
2024-05-09T18:20:50.564Z,102585.19
2024-05-09T18:23:20.436Z,102591.28
2024-05-09T18:26:01.653Z,102588.28
2024-05-09T18:28:31.095Z,102581.97
2024-05-09T18:31:00.357Z,102582.59
2024-05-09T18:33:27.045Z,102585.56
2024-05-09T18:35:53.701Z,102580.59
2024-05-09T18:38:27.921Z,102581.06
2024-05-09T18:40:57.537Z,102576.94
2024-05-09T18:43:31.176Z,102578.91
2024-05-09T18:46:03.254Z,102578.53
2024-05-09T18:48:32.693Z,102581.03
2024-05-09T18:51:02.016Z,102582.31
2024-05-09T18:53:28.629Z,102583.63
2024-05-09T18:55:58.422Z,102601.47
2024-05-09T18:58:25.043Z,102598.44
2024-05-09T19:00:54.283Z,102602.25
2024-05-09T19:03:22.551Z,102597.28
2024-05-09T19:05:49.714Z,102588.81
2024-05-09T19:08:16.536Z,102596.59
2024-05-09T19:10:46.568Z,102597.75
2024-05-09T19:13:14.352Z,102599.72
2024-05-09T19:15:43.759Z,102600.16
2024-05-09T19:18:20.656Z,102599.63
2024-05-09T19:20:55.631Z,102598.13
2024-05-09T19:23:22.307Z,102602.88
2024-05-09T19:25:55.571Z,102605.84
2024-05-09T19:28:25.961Z,102604.31
2024-05-09T19:31:00.908Z,102601.34
2024-05-09T19:33:27.585Z,102594.66
2024-05-09T19:36:00.181Z,102596.94
2024-05-09T19:38:26.714Z,102607.00
2024-05-09T19:40:53.427Z,102603.84
2024-05-09T19:43:23.571Z,102607.59
2024-05-09T19:45:50.332Z,102603.47
2024-05-09T19:48:17.133Z,102609.50
2024-05-09T19:50:53.682Z,102599.53
2024-05-09T19:53:20.382Z,102612.06
2024-05-09T19:55:48.103Z,102607.09
2024-05-09T19:58:17.786Z,102609.81
2024-05-09T20:00:45.071Z,102605.13
2024-05-09T20:03:14.324Z,102605.56
2024-05-09T20:05:46.643Z,102599.91
2024-05-09T20:08:17.541Z,102605.63
2024-05-09T20:10:48.068Z,102603.75
2024-05-09T20:13:20.271Z,102600.84
2024-05-09T20:15:50.775Z,102610.47
2024-05-09T20:18:19.668Z,102612.19
2024-05-09T20:20:53.403Z,102614.41
2024-05-09T20:23:21.152Z,102619.44
2024-05-09T20:25:50.669Z,102609.47
2024-05-09T20:28:17.321Z,102615.63
2024-05-09T20:30:47.539Z,102615.38
2024-05-09T20:33:17.037Z,102622.88
2024-05-09T20:35:43.561Z,102623.59
2024-05-09T20:38:11.270Z,102623.19
2024-05-09T20:40:41.120Z,102626.25
2024-05-09T20:43:12.158Z,102624.34
2024-05-09T20:45:42.238Z,102623.50
2024-05-09T20:48:09.818Z,102625.91
2024-05-09T20:50:41.979Z,102624.91
2024-05-09T20:53:15.666Z,102629.09
2024-05-09T20:55:48.222Z,102627.84
2024-05-09T20:58:17.350Z,102629.38
2024-05-09T21:00:45.743Z,102626.47
2024-05-09T21:03:17.650Z,102636.41
2024-05-09T21:05:48.602Z,102627.25
2024-05-09T21:08:19.725Z,102622.13
2024-05-09T21:10:50.411Z,102620.59
2024-05-09T21:13:17.334Z,102619.34
2024-05-09T21:15:44.287Z,102626.97
2024-05-09T21:18:20.295Z,102624.88
2024-05-09T21:20:55.964Z,102623.59
2024-05-09T21:23:22.688Z,102619.56
2024-05-09T21:25:49.209Z,102615.13
2024-05-09T21:28:19.407Z,102617.06
2024-05-09T21:30:46.116Z,102616.66
2024-05-09T21:33:14.297Z,102619.56
2024-05-09T21:35:46.952Z,102615.41
2024-05-09T21:38:14.607Z,102623.41
2024-05-09T21:40:49.597Z,102617.59
2024-05-09T21:43:17.878Z,102619.38
2024-05-09T21:45:57.546Z,102616.19
2024-05-09T21:48:25.544Z,102621.72
2024-05-09T21:50:55.389Z,102618.66
2024-05-09T21:53:21.930Z,102618.78
2024-05-09T21:55:51.709Z,102616.16
2024-05-09T21:58:21.645Z,102607.56
2024-05-09T22:00:49.152Z,102620.59
2024-05-09T22:03:26.546Z,102616.41
2024-05-09T22:05:53.484Z,102614.63
2024-05-09T22:08:20.001Z,102613.66
2024-05-09T22:10:46.608Z,102619.88
2024-05-09T22:13:13.542Z,102613.38
2024-05-09T22:15:44.092Z,102616.38
2024-05-09T22:18:11.746Z,102615.56
2024-05-09T22:20:45.176Z,102617.22
2024-05-09T22:23:15.931Z,102612.34
2024-05-09T22:25:42.867Z,102615.50
2024-05-09T22:28:17.188Z,102616.59
2024-05-09T22:30:46.092Z,102615.78
2024-05-09T22:33:22.310Z,102621.84
2024-05-09T22:35:49.418Z,102618.69
2024-05-09T22:38:15.968Z,102619.34
2024-05-09T22:40:48.002Z,102613.88
2024-05-09T22:43:24.827Z,102619.91
2024-05-09T22:45:53.750Z,102622.38
2024-05-09T22:48:21.561Z,102620.22
2024-05-09T22:50:48.566Z,102630.28
2024-05-09T22:53:15.547Z,102629.13
2024-05-09T22:55:45.275Z,102622.59
2024-05-09T22:58:11.985Z,102622.59
2024-05-09T23:00:38.623Z,102623.66
2024-05-09T23:03:16.571Z,102623.78
2024-05-09T23:05:43.312Z,102629.19
2024-05-09T23:08:10.612Z,102615.22
2024-05-09T23:10:40.053Z,102630.16
2024-05-09T23:13:07.972Z,102628.84
2024-05-09T23:15:39.486Z,102625.19
2024-05-09T23:18:07.269Z,102623.19
2024-05-09T23:20:38.688Z,102619.97
2024-05-09T23:23:10.022Z,102617.72
2024-05-09T23:25:37.903Z,102616.16
2024-05-09T23:28:07.841Z,102618.22
2024-05-09T23:30:38.458Z,102620.38
2024-05-09T23:33:14.894Z,102617.28
2024-05-09T23:35:51.629Z,102615.28
2024-05-09T23:38:20.897Z,102609.56
2024-05-09T23:40:49.248Z,102612.44
2024-05-09T23:43:15.839Z,102607.44
2024-05-09T23:45:43.395Z,102610.56
2024-05-09T23:48:13.241Z,102613.44
2024-05-09T23:50:40.807Z,102617.22
2024-05-09T23:53:10.178Z,102608.31
2024-05-09T23:55:37.747Z,102611.53
2024-05-09T23:58:08.339Z,102612.47
